createdAt,value
2023-03-04T00:01:26.993Z,148.43
2023-03-04T00:04:28.453Z,148.67
2023-03-04T00:07:29.916Z,152.88
2023-03-04T00:10:31.407Z,155.47
2023-03-04T00:13:33.063Z,148.20
2023-03-04T00:16:34.551Z,143.05
2023-03-04T00:19:36.242Z,153.10
2023-03-04T00:22:38.055Z,164.05
2023-03-04T00:25:40.239Z,150.85
2023-03-04T00:28:43.503Z,150.50
2023-03-04T00:31:44.998Z,158.90
2023-03-04T00:34:46.937Z,148.70
2023-03-04T00:37:48.373Z,148.75
2023-03-04T00:40:51.124Z,144.57
2023-03-04T00:43:52.550Z,148.83
2023-03-04T00:46:54.024Z,146.07
2023-03-04T00:49:55.450Z,158.00
2023-03-04T00:52:56.943Z,163.18
2023-03-04T00:55:58.391Z,158.13
2023-03-04T00:58:59.893Z,167.60
2023-03-04T01:02:01.447Z,170.20
2023-03-04T01:05:04.405Z,158.52
2023-03-04T01:08:06.023Z,149.98
2023-03-04T01:11:07.656Z,160.27
2023-03-04T01:14:09.126Z,170.10
2023-03-04T01:17:12.160Z,172.50
2023-03-04T01:20:14.343Z,159.90
2023-03-04T01:23:16.609Z,162.15
2023-03-04T01:26:18.127Z,146.52
2023-03-04T01:29:19.553Z,140.87
2023-03-04T01:32:21.101Z,139.00
2023-03-04T01:35:23.538Z,144.18
2023-03-04T01:38:24.988Z,143.50
2023-03-04T01:41:27.436Z,145.48
2023-03-04T01:47:33.785Z,149.50
2023-03-04T01:50:35.897Z,134.80
2023-03-04T01:53:37.378Z,146.13
2023-03-04T01:56:40.113Z,147.77
2023-03-04T01:59:41.918Z,132.13
2023-03-04T02:02:43.483Z,142.02
2023-03-04T02:05:48.198Z,139.77
2023-03-04T02:08:49.619Z,132.65
2023-03-04T02:11:52.235Z,135.10
2023-03-04T02:14:53.657Z,129.98
2023-03-04T02:17:55.267Z,137.95
2023-03-04T02:21:08.956Z,127.65
2023-03-04T02:24:32.199Z,136.55
2023-03-04T02:27:33.716Z,132.50
2023-03-04T02:30:35.666Z,129.10
2023-03-04T02:33:37.126Z,124.97
2023-03-04T02:36:39.871Z,120.93
2023-03-04T02:39:47.304Z,122.93
2023-03-04T02:42:49.019Z,116.80
2023-03-04T02:45:51.345Z,125.63
2023-03-04T02:48:53.749Z,126.38
2023-03-04T02:58:20.650Z,123.07
2023-03-04T03:01:22.686Z,120.75
2023-03-04T03:04:25.282Z,127.63
2023-03-04T03:07:28.755Z,123.63
2023-03-04T03:10:31.218Z,129.25
2023-03-04T03:13:32.840Z,124.05
2023-03-04T03:19:36.833Z,128.77
2023-03-04T03:22:41.501Z,123.40
2023-03-04T03:25:44.037Z,122.70
2023-03-04T03:28:45.847Z,136.10
2023-03-04T03:31:47.384Z,121.85
2023-03-04T03:34:48.839Z,123.10
2023-03-04T03:37:50.309Z,119.40
2023-03-04T03:40:51.821Z,129.87
2023-03-04T03:43:53.239Z,119.40
2023-03-04T03:46:54.699Z,125.93
2023-03-04T03:49:56.086Z,132.13
2023-03-04T03:52:57.491Z,115.97
2023-03-04T03:55:59.200Z,118.57
2023-03-04T03:59:00.775Z,119.50
2023-03-04T04:02:02.283Z,122.20
2023-03-04T04:05:04.356Z,116.80
2023-03-04T04:08:05.762Z,125.72
2023-03-04T04:11:12.793Z,117.35
2023-03-04T04:14:14.740Z,118.45
2023-03-04T04:17:16.148Z,120.43
2023-03-04T04:20:17.583Z,117.63
2023-03-04T04:23:19.388Z,120.47
2023-03-04T04:26:20.862Z,111.43
2023-03-04T04:29:23.121Z,109.63
2023-03-04T04:32:24.615Z,115.05
2023-03-04T04:35:26.222Z,115.03
2023-03-04T04:38:27.766Z,103.93
2023-03-04T04:41:34.080Z,122.03
2023-03-04T04:44:36.197Z,107.93
2023-03-04T04:47:37.645Z,105.05
2023-03-04T04:50:39.059Z,109.57
2023-03-04T04:53:40.941Z,114.17
2023-03-04T04:56:42.422Z,113.75
2023-03-04T04:59:43.865Z,111.23
2023-03-04T05:02:45.333Z,105.53
2023-03-04T05:05:46.876Z,116.40
2023-03-04T05:08:48.967Z,113.07
2023-03-04T05:11:50.435Z,113.75
2023-03-04T05:14:51.910Z,113.47
2023-03-04T05:17:53.317Z,105.33
2023-03-04T05:20:57.205Z,107.70
2023-03-04T05:23:58.663Z,110.90
2023-03-04T05:27:00.625Z,100.70
2023-03-04T05:30:02.053Z,108.28
2023-03-04T05:33:03.495Z,108.97
2023-03-04T05:36:06.422Z,110.37
2023-03-04T05:39:07.809Z,112.45
2023-03-04T05:42:09.307Z,107.18
2023-03-04T05:45:11.243Z,103.17
2023-03-04T05:48:12.659Z,122.47
2023-03-04T05:51:14.213Z,115.78
2023-03-04T05:54:16.058Z,111.33
2023-03-04T05:57:17.478Z,104.53
2023-03-04T06:00:19.242Z,101.90
2023-03-04T06:03:22.530Z,106.20
2023-03-04T06:06:24.030Z,109.82
2023-03-04T06:09:25.441Z,105.10
2023-03-04T06:12:28.743Z,98.40
2023-03-04T06:15:30.752Z,108.57
2023-03-04T06:18:32.309Z,103.95
2023-03-04T06:21:33.878Z,108.20
2023-03-04T06:24:35.548Z,106.07
2023-03-04T06:27:37.057Z,119.57
2023-03-04T06:30:38.530Z,109.87
2023-03-04T06:33:40.061Z,114.20
2023-03-04T06:36:41.513Z,107.13
2023-03-04T06:39:42.964Z,105.33
2023-03-04T06:42:44.457Z,103.68
2023-03-04T06:45:46.390Z,113.83
2023-03-04T06:48:47.845Z,105.32
2023-03-04T06:51:49.268Z,131.80
2023-03-04T06:54:50.716Z,123.00
2023-03-04T06:57:52.156Z,111.83
2023-03-04T07:00:53.596Z,106.30
2023-03-04T07:03:56.880Z,100.40
2023-03-04T07:06:58.446Z,110.32
2023-03-04T07:09:59.923Z,102.60
2023-03-04T07:13:01.795Z,113.37
2023-03-04T07:16:03.805Z,107.65
2023-03-04T07:19:05.269Z,108.07
2023-03-04T07:22:06.697Z,113.80
2023-03-04T07:25:08.701Z,115.88
2023-03-04T07:28:10.178Z,111.32
2023-03-04T07:31:18.411Z,118.43
2023-03-04T07:34:19.907Z,109.13
2023-03-04T07:37:21.368Z,114.53
2023-03-04T07:40:23.194Z,119.88
2023-03-04T07:43:24.828Z,121.18
2023-03-04T07:46:26.364Z,119.55
2023-03-04T07:49:27.852Z,127.57
2023-03-04T07:52:29.377Z,120.10
2023-03-04T07:55:31.546Z,132.67
2023-03-04T07:58:33.189Z,133.30
2023-03-04T08:01:37.017Z,113.43
2023-03-04T08:04:38.633Z,117.93
2023-03-04T08:07:40.081Z,117.47
2023-03-04T08:10:41.746Z,127.33
2023-03-04T08:13:43.933Z,119.38
2023-03-04T08:16:45.417Z,125.63
2023-03-04T08:19:46.853Z,137.83
2023-03-04T08:22:48.305Z,148.13
2023-03-04T08:25:50.475Z,167.43
2023-03-04T08:28:53.696Z,144.73
2023-03-04T08:31:55.925Z,129.93
2023-03-04T08:34:57.553Z,121.65
2023-03-04T08:38:01.301Z,125.40
2023-03-04T08:41:04.280Z,121.13
2023-03-04T08:44:08.172Z,120.88
2023-03-04T08:47:10.253Z,140.50
2023-03-04T08:50:11.917Z,127.10
2023-03-04T08:53:14.237Z,132.73
2023-03-04T08:56:16.877Z,126.57
2023-03-04T08:59:18.262Z,129.20
2023-03-04T09:02:19.968Z,130.63
2023-03-04T09:05:21.449Z,131.82
2023-03-04T09:08:22.872Z,126.87
2023-03-04T09:11:24.269Z,115.67
2023-03-04T09:14:25.730Z,118.57
2023-03-04T09:17:27.261Z,111.67
2023-03-04T09:20:29.606Z,119.07
2023-03-04T09:26:34.843Z,123.82
2023-03-04T09:29:36.288Z,121.22
2023-03-04T09:32:38.069Z,129.13
2023-03-04T09:35:39.725Z,122.13
2023-03-04T09:38:42.572Z,128.95
2023-03-04T09:41:47.835Z,135.20
2023-03-04T09:44:49.258Z,132.82
2023-03-04T09:47:54.363Z,118.30
2023-03-04T09:51:18.438Z,102.68
2023-03-04T09:54:27.981Z,120.30
2023-03-04T09:58:04.921Z,105.88
2023-03-04T10:01:16.967Z,114.47
2023-03-04T10:04:36.436Z,108.72
2023-03-04T10:07:43.396Z,110.07
2023-03-04T10:10:45.820Z,107.97
2023-03-04T10:14:08.924Z,112.15
2023-03-04T10:17:19.661Z,103.50
2023-03-04T10:20:30.019Z,106.82
2023-03-04T10:23:34.296Z,119.78
2023-03-04T10:26:36.398Z,111.35
2023-03-04T10:29:38.075Z,123.75
2023-03-04T10:32:46.729Z,104.63
2023-03-04T10:36:04.366Z,106.55
2023-03-04T10:39:12.273Z,138.00
2023-03-04T10:42:13.679Z,134.52
2023-03-04T10:45:27.720Z,133.23
2023-03-04T10:48:30.971Z,159.07
2023-03-04T10:51:33.044Z,142.88
2023-03-04T10:54:47.289Z,138.80
2023-03-04T10:57:53.005Z,152.35
2023-03-04T11:01:04.416Z,148.77
2023-03-04T11:04:18.125Z,157.07
2023-03-04T11:07:21.697Z,140.68
2023-03-04T11:10:43.507Z,159.90
2023-03-04T11:13:52.427Z,141.60
2023-03-04T11:16:59.689Z,133.02
2023-03-04T11:20:11.833Z,119.57
2023-03-04T11:23:20.546Z,142.75
2023-03-04T11:26:35.442Z,134.10
2023-03-04T11:29:57.583Z,145.73
2023-03-04T11:33:23.952Z,149.57
2023-03-04T11:36:45.661Z,145.30
2023-03-04T11:39:59.099Z,145.93
2023-03-04T11:43:11.006Z,143.52
2023-03-04T11:46:29.904Z,136.55
2023-03-04T11:50:03.996Z,131.60
2023-03-04T11:53:24.770Z,146.90
2023-03-04T11:56:37.852Z,134.15
2023-03-04T11:59:46.775Z,154.40
2023-03-04T12:03:22.370Z,142.13
2023-03-04T12:07:08.064Z,142.30
2023-03-04T12:10:44.098Z,129.02
2023-03-04T12:14:07.878Z,135.18
2023-03-04T12:17:44.674Z,140.93
2023-03-04T12:21:11.235Z,136.45
2023-03-04T12:24:27.987Z,146.77
2023-03-04T12:27:46.527Z,126.43
2023-03-04T12:31:13.507Z,129.77
2023-03-04T12:34:27.825Z,146.68
2023-03-04T12:37:49.490Z,143.00
2023-03-04T12:41:18.600Z,116.22
2023-03-04T12:44:21.480Z,146.10
2023-03-04T12:47:33.707Z,113.05
2023-03-04T12:50:45.306Z,122.18
2023-03-04T12:54:14.735Z,135.05
2023-03-04T12:57:22.859Z,124.93
2023-03-04T13:00:39.524Z,121.72
2023-03-04T13:04:08.472Z,128.80
2023-03-04T13:07:39.878Z,122.22
2023-03-04T13:10:41.362Z,129.20
2023-03-04T13:13:42.849Z,124.97
2023-03-04T13:16:46.912Z,127.10
2023-03-04T13:19:52.530Z,129.90
2023-03-04T13:22:59.503Z,128.98
2023-03-04T13:26:23.122Z,130.70
2023-03-04T13:29:24.513Z,132.32
2023-03-04T13:32:38.217Z,129.93
2023-03-04T13:35:45.905Z,124.65
2023-03-04T13:39:40.119Z,119.07
2023-03-04T13:42:44.134Z,139.47
2023-03-04T13:45:45.548Z,127.85
2023-03-04T13:49:02.386Z,131.27
2023-03-04T13:52:41.267Z,135.55
2023-03-04T13:55:43.994Z,122.13
2023-03-04T13:58:45.735Z,117.97
2023-03-04T14:01:47.074Z,123.00
2023-03-04T14:04:54.683Z,114.30
2023-03-04T14:07:56.131Z,120.22
2023-03-04T14:10:57.714Z,128.07
2023-03-04T14:14:03.256Z,119.35
2023-03-04T14:17:06.780Z,112.82
2023-03-04T14:20:48.471Z,115.28
2023-03-04T14:24:01.189Z,114.80
2023-03-04T14:27:13.968Z,106.35
2023-03-04T14:30:39.471Z,109.05
2023-03-04T14:33:57.131Z,112.00
2023-03-04T14:36:59.565Z,120.50
2023-03-04T14:43:12.046Z,98.72
2023-03-04T14:46:18.827Z,107.13
2023-03-04T14:49:20.464Z,105.07
2023-03-04T14:52:42.042Z,102.00
2023-03-04T14:56:00.282Z,102.00
2023-03-04T14:59:02.440Z,101.63
2023-03-04T15:02:41.143Z,103.68
2023-03-04T15:05:42.931Z,106.07
2023-03-04T15:08:45.608Z,104.80
2023-03-04T15:11:52.923Z,105.68
2023-03-04T15:14:58.593Z,102.70
2023-03-04T15:18:01.941Z,116.07
2023-03-04T15:21:37.810Z,102.72
2023-03-04T15:24:40.075Z,92.82
2023-03-04T15:27:43.028Z,108.30
2023-03-04T15:30:45.008Z,105.80
2023-03-04T15:33:47.024Z,101.63
2023-03-04T15:36:51.885Z,104.95
2023-03-04T15:39:56.271Z,102.63
2023-03-04T15:43:00.659Z,97.38
2023-03-04T15:46:02.076Z,101.25
2023-03-04T15:49:03.791Z,100.27
2023-03-04T15:52:06.648Z,96.82
2023-03-04T15:55:15.159Z,94.53
2023-03-04T15:58:16.930Z,81.13
2023-03-04T16:01:18.378Z,84.47
2023-03-04T16:04:19.888Z,101.72
2023-03-04T16:07:24.927Z,81.77
2023-03-04T16:10:30.590Z,80.47
2023-03-04T16:13:32.173Z,86.68
2023-03-04T16:16:33.676Z,75.23
2023-03-04T16:19:35.157Z,84.60
2023-03-04T16:22:37.096Z,74.68
2023-03-04T16:25:38.708Z,70.25
2023-03-04T16:28:40.540Z,74.10
2023-03-04T16:31:42.100Z,71.80
2023-03-04T16:34:43.541Z,69.60
2023-03-04T16:37:45.882Z,70.13
2023-03-04T16:43:48.904Z,81.13
2023-03-04T16:46:50.455Z,75.20
2023-03-04T16:49:53.054Z,69.13
2023-03-04T16:52:55.852Z,72.97
2023-03-04T16:55:58.609Z,63.15
2023-03-04T16:59:00.183Z,66.20
2023-03-04T17:02:01.698Z,65.22
2023-03-04T17:05:04.243Z,66.97
2023-03-04T17:08:05.793Z,74.97
2023-03-04T17:11:08.162Z,63.73
2023-03-04T17:14:09.771Z,74.55
2023-03-04T17:17:11.506Z,71.37
2023-03-04T17:20:16.529Z,78.63
2023-03-04T17:23:18.095Z,73.50
2023-03-04T17:26:22.425Z,77.27
2023-03-04T17:29:24.183Z,62.65
2023-03-04T17:32:27.403Z,68.25
2023-03-04T17:35:28.871Z,78.82
2023-03-04T17:38:30.444Z,66.90
2023-03-04T17:41:33.787Z,75.00
2023-03-04T17:44:37.173Z,64.43
2023-03-04T17:47:39.162Z,71.00
2023-03-04T17:50:51.239Z,69.15
2023-03-04T17:53:52.672Z,62.78
2023-03-04T17:56:54.356Z,67.25
2023-03-04T17:59:56.191Z,63.45
2023-03-04T18:02:57.783Z,68.93
2023-03-04T18:05:59.285Z,68.50
2023-03-04T18:09:00.927Z,68.07
2023-03-04T18:12:02.353Z,65.47
2023-03-04T18:15:03.995Z,63.90
2023-03-04T18:18:05.416Z,69.03
2023-03-04T18:21:06.847Z,67.60
2023-03-04T18:24:09.606Z,67.90
2023-03-04T18:27:11.340Z,66.28
2023-03-04T18:30:18.143Z,80.18
2023-03-04T18:33:20.651Z,77.68
2023-03-04T18:36:22.189Z,67.55
2023-03-04T18:39:23.616Z,73.33
2023-03-04T18:42:25.131Z,76.45
2023-03-04T18:45:27.186Z,70.47
2023-03-04T18:48:31.120Z,76.65
2023-03-04T18:51:33.063Z,69.25
2023-03-04T18:54:34.524Z,73.25
2023-03-04T18:57:38.923Z,73.97
2023-03-04T19:00:40.453Z,77.60
2023-03-04T19:03:43.154Z,84.27
2023-03-04T19:06:44.662Z,82.93
2023-03-04T19:09:46.270Z,79.63
2023-03-04T19:12:47.759Z,72.77
2023-03-04T19:15:54.007Z,67.97
2023-03-04T19:18:55.442Z,67.72
2023-03-04T19:21:57.049Z,66.13
2023-03-04T19:24:58.484Z,68.97
2023-03-04T19:28:00.930Z,63.40
2023-03-04T19:34:07.500Z,129.98
2023-03-04T19:37:08.912Z,90.80
2023-03-04T19:40:11.432Z,91.80
2023-03-04T19:43:14.469Z,122.65
2023-03-04T19:46:16.096Z,110.97
2023-03-04T19:49:17.583Z,91.60
2023-03-04T19:52:19.261Z,98.27
2023-03-04T19:55:20.801Z,107.68
2023-03-04T19:58:22.296Z,90.27
2023-03-04T20:01:29.698Z,79.70
2023-03-04T20:04:31.287Z,75.97
2023-03-04T20:07:32.739Z,82.63
2023-03-04T20:10:36.976Z,82.63
2023-03-04T20:13:38.437Z,68.57
2023-03-04T20:16:39.917Z,78.20
2023-03-04T20:19:41.339Z,74.93
2023-03-04T20:22:42.820Z,77.63
2023-03-04T20:25:44.324Z,75.32
2023-03-04T20:28:45.789Z,76.77
2023-03-04T20:31:47.715Z,76.30
2023-03-04T20:34:53.993Z,88.25
2023-03-04T20:37:56.348Z,99.72
2023-03-04T20:43:59.489Z,108.78
2023-03-04T20:47:01.583Z,93.23
2023-03-04T20:50:03.259Z,77.25
2023-03-04T20:53:04.684Z,89.22
2023-03-04T20:56:06.184Z,72.87
2023-03-04T20:59:09.208Z,85.63
2023-03-04T21:02:15.026Z,82.20
2023-03-04T21:05:16.508Z,91.45
2023-03-04T21:08:18.046Z,84.70
2023-03-04T21:11:19.560Z,85.10
2023-03-04T21:14:27.350Z,89.03
2023-03-04T21:17:28.778Z,89.30
2023-03-04T21:20:30.269Z,80.13
2023-03-04T21:23:32.549Z,85.95
2023-03-04T21:26:34.033Z,70.25
2023-03-04T21:29:35.786Z,78.90
2023-03-04T21:32:37.446Z,68.28
2023-03-04T21:35:38.920Z,69.43
2023-03-04T21:38:44.873Z,70.27
2023-03-04T21:41:47.172Z,64.30
2023-03-04T21:47:52.798Z,81.20
2023-03-04T21:50:54.271Z,72.07
2023-03-04T21:53:55.768Z,68.50
2023-03-04T21:56:57.198Z,66.20
2023-03-04T21:59:58.705Z,67.95
2023-03-04T22:03:00.133Z,68.53
2023-03-04T22:06:04.898Z,67.25
2023-03-04T22:09:06.695Z,59.97
2023-03-04T22:12:08.305Z,71.55
2023-03-04T22:15:11.228Z,67.27
2023-03-04T22:18:14.181Z,63.50
2023-03-04T22:21:17.756Z,77.78
2023-03-04T22:24:20.025Z,74.82
2023-03-04T22:27:21.775Z,67.60
2023-03-04T22:30:23.320Z,67.70
2023-03-04T22:33:25.765Z,69.10
2023-03-04T22:39:30.270Z,61.50
2023-03-04T22:42:31.821Z,65.47
2023-03-04T22:45:33.499Z,60.43
2023-03-04T22:48:34.937Z,59.67
2023-03-04T22:51:37.055Z,65.45
2023-03-04T22:54:38.498Z,79.13
2023-03-04T22:57:40.248Z,67.70
2023-03-04T23:00:41.654Z,77.60
2023-03-04T23:03:45.372Z,80.55
2023-03-04T23:06:46.803Z,94.88
2023-03-04T23:09:48.225Z,97.67
2023-03-04T23:12:50.174Z,91.80
2023-03-04T23:15:51.821Z,96.65
2023-03-04T23:18:53.342Z,112.37
2023-03-04T23:21:54.871Z,102.53
2023-03-04T23:24:57.621Z,77.07
2023-03-04T23:27:59.075Z,81.68
2023-03-04T23:31:00.629Z,85.23
2023-03-04T23:34:02.859Z,74.20
2023-03-04T23:37:04.391Z,83.53
2023-03-04T23:40:06.431Z,101.37
2023-03-04T23:43:07.898Z,83.75
2023-03-04T23:46:11.452Z,80.40
2023-03-04T23:49:14.261Z,105.22
2023-03-04T23:52:15.738Z,110.97
2023-03-04T23:55:18.951Z,87.13
2023-03-04T23:58:20.388Z,86.85
